Terminal Aerodrome Forecast
Issued by NWS

Home | Current Version | Previous Version | Text Only | Print | Product List | Glossary On
Versions: 1 2 3 4 5 6 7 8 9 10 11 12 13 14 15 16 17 18 19 20 21 22 23 24 25 26 27 28 29 30 31 32 33
000
FTUS45 KGJT 262153 AAA
TAFCNY
TAF AMD
KCNY 262153Z 2622/2718 34008KT P6SM VCSH BKN040 OVC050
     FM270200 36005KT P6SM SCT040 BKN060
     FM271600 VRB03KT P6SM SCT060 BKN080=

USA.gov is the U.S. government's official web portal to all federal, state and local government web resources and services.